This is the latest recevied weather packets stored in our database for station/object K1ABC. If no packets are shown the sender has not sent any weather packets the latest 10 day(s).
| Time | Temp. | Humidity | Pressure | Rain* | Wind** | Luminosity | Snow |
|---|---|---|---|---|---|---|---|
| 1777387458 | 14.44° C | 50% | 1023.5 hPa | 0 mm | - | - | - |
| 1777387142 | 14.44° C | 49% | 1023.4 hPa | 0 mm | - | - | - |
| 1777386822 | 14.44° C | 46% | 1023.3 hPa | 0 mm | - | - | - |
| 1777386364 | 14.44° C | 45% | 1023.5 hPa | 0 mm | - | - | - |
| 1777386163 | 14.44° C | 45% | 1023.5 hPa | 0 mm | - | - | - |
| 1777385100 | 13.89° C | 49% | 1023.6 hPa | 0 mm | - | - | - |
| 1777384906 | 13.89° C | 48% | 1023.5 hPa | 0 mm | - | - | - |
| 1777383571 | 13.33° C | 52% | 1023.4 hPa | 0 mm | - | - | - |
| 1777382985 | 13.33° C | 56% | 1023.3 hPa | 0 mm | - | - | - |
| 1777382672 | 13.33° C | 53% | 1023.3 hPa | 0 mm | - | - | - |
| 1777382104 | 12.78° C | 58% | 1023.5 hPa | 0 mm | - | - | - |
| 1777381539 | 12.22° C | 59% | 1023.7 hPa | 0 mm | - | - | - |
| 1777380466 | 11.67° C | 65% | 1023.8 hPa | 0 mm | - | - | - |
| 1777379902 | 11.11° C | 67% | 1023.8 hPa | 0 mm | - | - | - |
| 1777379701 | 10.56° C | 70% | 1023.7 hPa | 0 mm | - | - | - |
| 1777379504 | 10.56° C | 72% | 1023.7 hPa | 0 mm | - | - | - |
| 1777377673 | 9.44° C | 82% | 1023.8 hPa | 0 mm | - | - | - |
| 1777377227 | 8.89° C | 83% | 1023.8 hPa | 0 mm | - | - | - |
| 1777376904 | 8.33° C | 84% | 1023.9 hPa | 0 mm | - | - | - |
| 1777376070 | 7.78° C | 88% | 1024 hPa | 0 mm | - | - | - |
| 1777373865 | 5.56° C | 94% | 1023.9 hPa | 0 mm | - | - | - |
| 1777373035 | 5° C | 93% | 1023.7 hPa | 0 mm | - | - | - |
| 1777372577 | 5° C | 93% | 1023.7 hPa | 0 mm | - | - | - |
| 1777372256 | 4.44° C | 93% | 1023.6 hPa | 0 mm | - | - | - |
| 1777370821 | 4.44° C | 92% | 1023.7 hPa | 0 mm | - | - | - |
* Rain latest hour (hover to see other rain measurements)
** Current wind speed in m/s (hover to see current wind gust speed)